Flight Track Log - Related Links

Times and Time Zones

All times are in EDT time to prevent confusion due to time zone crossing. See the SRY651 flight status page for this flight to view local times or setup timezone preferences in your user account.

Time Position Orientation Groundspeed Altitude Reporting Facility
EDT Latitude Longitude Course Direction KTS MPH feet Rate Location/Type
Thu 09:22:12 PM 40.7000 -73.4167 229° Southwest 165 190 1,200  Level New York TRACON
Thu 09:23:13 PM 40.6667 -73.4667 255° West 201 231 2,600 1,041 Climbing New York TRACON
Thu 09:24:13 PM 40.6500 -73.5500 303° West 240 276 3,300 1,059 Climbing New York TRACON
Thu 09:25:12 PM 40.6833 -73.6167 270° West 218 251 4,700 1,300 Climbing New York TRACON
Thu 09:26:13 PM 40.6833 -73.6833 237° Southwest 216 249 5,900 600 Climbing New York TRACON
Thu 09:27:12 PM 40.6500 -73.7500 211° Southwest 206 237 5,900 -204 Level New York TRACON
Thu 09:35:32 PM 40.1431 -74.1467 285° West 252 290 4,000 -211 Descending FAA TRACON SMA TRACON (SMA)
Thu 09:36:12 PM 40.1536 -74.1972 291° West 237 273 4,000  Level FAA TRACON SMA TRACON (SMA)
Thu 09:36:52 PM 40.1703 -74.2531 281° West 240 276 4,000  Level FAA TRACON SMA TRACON (SMA)
Thu 09:37:32 PM 40.1786 -74.3119 280° West 240 276 4,000  Level FAA TRACON SMA TRACON (SMA)
Thu 09:38:12 PM 40.1858 -74.3656 279° West 244 281 4,000  Level FAA TRACON SMA TRACON (SMA)
Thu 09:38:52 PM 40.1931 -74.4253 280° West 243 280 4,000  Level FAA TRACON SMA TRACON (SMA)
Thu 09:39:32 PM 40.2011 -74.4864 279° West 244 281 4,000  Level FAA TRACON SMA TRACON (SMA)
Thu 09:40:12 PM 40.2078 -74.5403 274° West 244 281 4,000 -150 Level FAA TRACON SMA TRACON (SMA)
Thu 09:40:52 PM 40.2114 -74.6008 257° West 247 284 3,800 -750 Descending FAA TRACON SMA TRACON (SMA)
Thu 09:41:32 PM 40.2014 -74.6592 257° West 241 277 3,000 -675 Descending FAA TRACON SMA TRACON (SMA)
Thu 09:42:12 PM 40.1928 -74.7078 258° West 208 239 2,900  Descending FAA TRACON SMA TRACON (SMA)
Thu 09:42:53 PM 40.1850 -74.7575 257° West 201 231 3,000  Climbing FAA TRACON SMA TRACON (SMA)
Thu 09:43:32 PM 40.1767 -74.8050 237° Southwest 197 227 2,900 -675 Descending FAA TRACON SMA TRACON (SMA)
Thu 09:44:13 PM 40.1578 -74.8428 248° West 202 232 2,100 -741 Descending FAA TRACON SMA TRACON (SMA)
Thu 09:44:53 PM 40.1444 -74.8864 301° West 168 193 1,900 -75 Descending FAA TRACON SMA TRACON (SMA)
Thu 09:45:33 PM 40.1622 -74.9250 335° Northwest 173 199 2,000  Climbing FAA TRACON SMA TRACON (SMA)
Thu 09:46:16 PM 40.1900 -74.9419 55° Northeast 202 232 1,900 -75 Descending FAA TRACON SMA TRACON (SMA)
Thu 09:46:53 PM 40.2089 -74.9061 48° Northeast 193 222 1,900 -468 Level FAA TRACON SMA TRACON (SMA)
Thu 09:47:33 PM 40.2328 -74.8717 46° Northeast 189 217 1,300 -975 Descending FAA TRACON SMA TRACON (SMA)
Thu 09:48:13 PM 40.2564 -74.8400 47° Northeast 155 178 600 -750 Descending FAA TRACON SMA TRACON (SMA)
Thu 09:48:53 PM 40.2669 -74.8250 360° North 136 157 300 -225 Descending FAA TRACON SMA TRACON (SMA)
Thu 09:49:33 PM 40.2669 -74.8250 360° North 136 157 300  Level FAA TRACON SMA TRACON (SMA)

Login

Don't have an account? Register now (free) for customized features, flight alerts, and more!